createdAt,value
2019-03-29T00:01:13.411Z,78.90
2019-03-29T00:03:39.657Z,78.90
2019-03-29T00:06:05.945Z,78.90
2019-03-29T00:08:32.159Z,78.90
2019-03-29T00:10:58.475Z,79.20
2019-03-29T00:13:24.716Z,79.40
2019-03-29T00:15:51.484Z,79.40
2019-03-29T00:18:17.826Z,79.50
2019-03-29T00:20:44.074Z,79.70
2019-03-29T00:23:10.420Z,79.70
2019-03-29T00:25:36.658Z,80.10
2019-03-29T00:28:02.891Z,80.30
2019-03-29T00:30:29.456Z,80.50
2019-03-29T00:32:55.920Z,80.70
2019-03-29T00:35:22.197Z,81.20
2019-03-29T00:37:53.705Z,81.60
2019-03-29T00:40:16.573Z,81.60
2019-03-29T00:42:43.090Z,81.90
2019-03-29T00:45:09.944Z,81.90
2019-03-29T00:47:36.156Z,82.10
2019-03-29T00:50:04.937Z,82.40
2019-03-29T00:52:31.171Z,82.60
2019-03-29T00:54:57.426Z,82.70
2019-03-29T00:57:23.708Z,83.10
2019-03-29T00:59:49.929Z,83.30
2019-03-29T01:02:16.190Z,83.50
2019-03-29T01:04:42.407Z,83.40
2019-03-29T01:07:08.770Z,83.60
2019-03-29T01:09:34.977Z,83.60
2019-03-29T01:12:03.118Z,83.60
2019-03-29T01:14:29.353Z,83.90
2019-03-29T01:16:55.610Z,84.10
2019-03-29T01:19:21.821Z,84.10
2019-03-29T01:21:48.100Z,84.30
2019-03-29T01:24:14.361Z,84.60
2019-03-29T01:26:40.581Z,84.50
2019-03-29T01:29:06.805Z,85.00
2019-03-29T01:31:33.032Z,85.30
2019-03-29T01:33:59.259Z,85.50
2019-03-29T01:36:25.537Z,85.60
2019-03-29T01:38:51.784Z,86.20
2019-03-29T01:41:18.024Z,86.00
2019-03-29T01:43:44.265Z,86.10
2019-03-29T01:46:11.300Z,86.00
2019-03-29T01:48:38.141Z,86.00
2019-03-29T01:51:04.490Z,86.00
2019-03-29T01:53:30.707Z,86.00
2019-03-29T01:55:56.983Z,86.00
2019-03-29T01:58:23.234Z,86.60
2019-03-29T02:00:49.565Z,86.90
2019-03-29T02:03:15.817Z,86.90
2019-03-29T02:05:42.031Z,87.00
2019-03-29T02:08:08.275Z,87.10
2019-03-29T02:10:34.610Z,87.50
2019-03-29T02:13:00.852Z,87.50
2019-03-29T02:15:27.107Z,87.80
2019-03-29T02:17:53.345Z,87.80
2019-03-29T02:20:19.632Z,88.00
2019-03-29T02:22:45.894Z,88.00
2019-03-29T02:25:12.540Z,88.20
2019-03-29T02:27:38.762Z,88.30
2019-03-29T02:30:06.432Z,88.50
2019-03-29T02:32:32.658Z,88.60
2019-03-29T02:34:58.931Z,88.50
2019-03-29T02:37:25.179Z,88.60
2019-03-29T02:39:51.404Z,88.50
2019-03-29T02:42:17.641Z,88.50
2019-03-29T02:44:43.883Z,88.20
2019-03-29T02:47:10.173Z,88.10
2019-03-29T02:49:36.440Z,88.10
2019-03-29T02:52:02.867Z,87.90
2019-03-29T02:54:29.347Z,87.90
2019-03-29T02:56:55.588Z,87.70
2019-03-29T02:59:21.844Z,87.60
2019-03-29T03:01:48.060Z,87.60
2019-03-29T03:04:14.357Z,87.60
2019-03-29T03:06:40.624Z,87.70
2019-03-29T03:09:14.171Z,87.70
2019-03-29T03:11:34.975Z,87.60
2019-03-29T03:14:01.333Z,87.60
2019-03-29T03:16:27.590Z,88.00
2019-03-29T03:18:53.818Z,88.10
2019-03-29T03:21:20.045Z,88.20
2019-03-29T03:23:46.409Z,88.30
2019-03-29T03:26:12.654Z,88.20
2019-03-29T03:28:38.879Z,88.10
2019-03-29T03:31:05.132Z,88.40
2019-03-29T03:33:31.378Z,88.60
2019-03-29T03:35:57.608Z,88.60
2019-03-29T03:38:23.848Z,88.60
2019-03-29T03:40:50.254Z,88.60
2019-03-29T03:43:16.481Z,88.50
2019-03-29T03:45:42.701Z,88.40
2019-03-29T03:48:08.936Z,88.40
2019-03-29T03:50:40.978Z,88.30
2019-03-29T03:53:08.792Z,88.30
2019-03-29T03:55:36.829Z,88.30
2019-03-29T03:58:03.287Z,88.50
2019-03-29T04:00:50.097Z,88.80
2019-03-29T04:03:16.325Z,88.90
2019-03-29T04:05:42.572Z,89.20
2019-03-29T04:08:09.227Z,90.10
2019-03-29T04:10:35.446Z,90.10
2019-03-29T04:13:01.986Z,90.60
2019-03-29T04:15:28.237Z,90.90
2019-03-29T04:17:54.464Z,91.00
2019-03-29T04:20:20.716Z,91.00
2019-03-29T04:22:46.948Z,91.10
2019-03-29T04:25:13.185Z,91.10
2019-03-29T04:27:39.421Z,91.10
2019-03-29T04:30:05.954Z,91.10
2019-03-29T04:32:32.184Z,91.10
2019-03-29T04:34:58.424Z,91.10
2019-03-29T04:37:24.637Z,91.00
2019-03-29T04:40:06.381Z,91.00
2019-03-29T04:42:19.028Z,90.80
2019-03-29T04:44:45.260Z,90.70
2019-03-29T04:47:11.492Z,90.70
2019-03-29T04:49:37.790Z,90.60
2019-03-29T04:52:04.195Z,90.50
2019-03-29T04:54:30.461Z,90.40
2019-03-29T04:56:56.682Z,90.40
2019-03-29T04:59:22.908Z,90.30
2019-03-29T05:01:49.160Z,90.30
2019-03-29T05:04:15.370Z,90.20
2019-03-29T05:06:41.639Z,90.20
2019-03-29T05:09:07.856Z,90.20
2019-03-29T05:11:34.097Z,90.10
2019-03-29T05:14:00.313Z,90.10
2019-03-29T05:16:26.558Z,90.10
2019-03-29T05:18:52.785Z,90.10
2019-03-29T05:21:19.001Z,90.10
2019-03-29T05:23:45.338Z,90.10
2019-03-29T05:26:11.625Z,90.20
2019-03-29T05:28:37.837Z,90.20
2019-03-29T05:31:04.082Z,90.30
2019-03-29T05:33:30.327Z,90.20
2019-03-29T05:35:56.550Z,90.20
2019-03-29T05:38:22.777Z,90.30
2019-03-29T05:40:49.043Z,90.30
2019-03-29T05:43:15.602Z,90.40
2019-03-29T05:45:41.820Z,90.40
2019-03-29T05:48:08.043Z,90.50
2019-03-29T05:50:36.807Z,90.60
2019-03-29T05:53:02.422Z,90.70
2019-03-29T05:55:32.790Z,90.70
2019-03-29T05:57:56.911Z,90.60
2019-03-29T06:00:23.476Z,90.50
2019-03-29T06:02:49.704Z,90.40
2019-03-29T06:05:15.928Z,90.30
2019-03-29T06:07:42.163Z,90.20
2019-03-29T06:10:08.777Z,90.20
2019-03-29T06:12:35.011Z,90.20
2019-03-29T06:15:01.355Z,90.10
2019-03-29T06:17:27.832Z,89.40
2019-03-29T06:19:54.365Z,89.20
2019-03-29T06:22:20.597Z,89.30
2019-03-29T06:24:46.875Z,89.00
2019-03-29T06:27:13.098Z,86.40
2019-03-29T06:29:39.325Z,86.20
2019-03-29T06:32:05.881Z,82.90
2019-03-29T06:34:32.219Z,80.20
2019-03-29T06:36:59.634Z,79.40
2019-03-29T06:39:26.215Z,77.90
2019-03-29T06:41:52.433Z,76.40
2019-03-29T06:44:18.661Z,75.30
2019-03-29T06:46:44.890Z,74.20
2019-03-29T06:49:11.184Z,73.10
2019-03-29T06:51:37.426Z,73.90
2019-03-29T06:54:03.659Z,73.40
2019-03-29T06:56:29.989Z,72.70
2019-03-29T06:58:56.202Z,72.90
2019-03-29T07:01:22.443Z,75.30
2019-03-29T07:03:48.696Z,76.10
2019-03-29T07:06:14.980Z,76.20
2019-03-29T07:08:42.724Z,77.30
2019-03-29T07:11:17.091Z,76.80
2019-03-29T07:13:38.456Z,76.80
2019-03-29T07:16:04.679Z,77.30
2019-03-29T07:18:32.591Z,76.40
2019-03-29T07:20:58.854Z,76.70
2019-03-29T07:23:25.090Z,76.50
2019-03-29T07:25:51.332Z,76.40
2019-03-29T07:28:17.869Z,76.20
2019-03-29T07:30:44.082Z,75.60
2019-03-29T07:33:10.312Z,74.60
2019-03-29T07:35:36.537Z,74.20
2019-03-29T07:38:02.782Z,73.00
2019-03-29T07:40:29.094Z,73.00
2019-03-29T07:42:55.389Z,72.90
2019-03-29T07:45:23.846Z,71.70
2019-03-29T07:47:50.107Z,71.70
2019-03-29T07:50:18.985Z,71.00
2019-03-29T07:52:44.511Z,71.20
2019-03-29T07:55:10.751Z,70.90
2019-03-29T07:57:37.024Z,69.80
2019-03-29T08:00:06.041Z,70.40
2019-03-29T08:02:34.916Z,70.90
2019-03-29T08:05:00.600Z,69.30
2019-03-29T08:07:28.100Z,69.30
2019-03-29T08:09:54.975Z,69.10
2019-03-29T08:12:22.034Z,68.00
2019-03-29T08:14:48.455Z,67.20
2019-03-29T08:17:14.672Z,67.60
2019-03-29T08:19:41.157Z,67.50
2019-03-29T08:22:07.388Z,65.60
2019-03-29T08:24:33.709Z,65.40
2019-03-29T08:26:59.938Z,65.70
2019-03-29T08:29:26.159Z,65.20
2019-03-29T08:31:55.328Z,64.80
2019-03-29T08:34:20.618Z,64.20
2019-03-29T08:36:46.868Z,64.10
2019-03-29T08:39:26.975Z,63.00
2019-03-29T08:41:41.357Z,62.30
2019-03-29T08:44:07.675Z,62.10
2019-03-29T08:46:33.922Z,63.00
2019-03-29T08:49:00.223Z,63.10
2019-03-29T08:51:26.420Z,63.40
2019-03-29T08:53:52.669Z,61.80
2019-03-29T08:56:18.918Z,61.80
2019-03-29T08:58:46.652Z,62.90
2019-03-29T09:01:12.995Z,61.60
2019-03-29T09:03:39.525Z,60.70
2019-03-29T09:06:06.085Z,60.00
2019-03-29T09:08:32.355Z,59.90
2019-03-29T09:10:58.589Z,59.40
2019-03-29T09:13:24.810Z,59.80
2019-03-29T09:15:51.111Z,58.70
2019-03-29T09:18:17.349Z,59.60
2019-03-29T09:20:43.602Z,59.00
2019-03-29T09:23:10.606Z,58.80
2019-03-29T09:25:40.164Z,57.30
2019-03-29T09:28:05.268Z,57.80
2019-03-29T09:30:31.507Z,57.20
2019-03-29T09:32:57.935Z,55.70
2019-03-29T09:35:24.217Z,57.80
2019-03-29T09:37:50.435Z,55.90
2019-03-29T09:40:16.996Z,56.50
2019-03-29T09:42:43.893Z,56.60
2019-03-29T09:45:10.268Z,55.90
2019-03-29T09:47:40.377Z,55.00
2019-03-29T09:50:10.081Z,55.60
2019-03-29T09:52:35.704Z,55.10
2019-03-29T09:55:02.884Z,53.90
2019-03-29T09:57:37.111Z,53.30
2019-03-29T09:59:57.273Z,53.90
2019-03-29T10:02:23.704Z,53.50
2019-03-29T10:04:49.933Z,52.50
2019-03-29T10:07:16.410Z,52.00
2019-03-29T10:09:42.643Z,51.90
2019-03-29T10:12:09.080Z,52.80
2019-03-29T10:14:35.348Z,52.20
2019-03-29T10:17:01.566Z,52.10
2019-03-29T10:19:27.784Z,51.00
2019-03-29T10:21:54.033Z,51.10
2019-03-29T10:24:20.286Z,52.30
2019-03-29T10:26:46.760Z,51.70
2019-03-29T10:29:13.023Z,52.10
2019-03-29T10:31:39.286Z,50.90
2019-03-29T10:34:05.535Z,51.30
2019-03-29T10:36:32.019Z,52.50
2019-03-29T10:38:58.348Z,52.50
2019-03-29T10:41:24.615Z,53.60
2019-03-29T10:43:50.934Z,52.00
2019-03-29T10:46:17.169Z,52.50
2019-03-29T10:48:43.434Z,52.20
2019-03-29T10:51:09.695Z,53.50
2019-03-29T10:53:35.914Z,52.10
2019-03-29T10:56:02.341Z,52.50
2019-03-29T10:58:28.574Z,52.80
2019-03-29T11:00:54.789Z,51.30
2019-03-29T11:03:21.169Z,53.50
2019-03-29T11:05:47.476Z,54.40
2019-03-29T11:08:13.796Z,52.10
2019-03-29T11:10:40.323Z,51.40
2019-03-29T11:13:13.192Z,50.90
2019-03-29T11:15:35.236Z,52.00
2019-03-29T11:18:01.849Z,52.50
2019-03-29T11:20:28.206Z,50.70
2019-03-29T11:22:54.467Z,50.80
2019-03-29T11:25:20.785Z,52.30
2019-03-29T11:27:47.020Z,53.20
2019-03-29T11:30:13.346Z,54.20
2019-03-29T11:32:39.864Z,52.90
2019-03-29T11:35:06.206Z,51.90
2019-03-29T11:37:32.435Z,52.60
2019-03-29T11:39:58.689Z,51.60
2019-03-29T11:42:25.004Z,50.40
2019-03-29T11:44:51.231Z,51.50
2019-03-29T11:47:17.476Z,52.80
2019-03-29T11:49:43.696Z,51.80
2019-03-29T11:52:09.950Z,53.40
2019-03-29T11:54:36.184Z,54.00
2019-03-29T11:57:02.526Z,52.90
2019-03-29T11:59:28.861Z,53.10
2019-03-29T12:01:55.793Z,53.20
2019-03-29T12:04:22.031Z,53.10
2019-03-29T12:06:48.260Z,53.50
2019-03-29T12:09:14.493Z,53.80
2019-03-29T12:11:40.720Z,53.00
2019-03-29T12:14:07.180Z,53.50
2019-03-29T12:16:33.501Z,52.40
2019-03-29T12:18:59.734Z,53.50
2019-03-29T12:21:25.980Z,53.60
2019-03-29T12:23:52.216Z,53.30
2019-03-29T12:26:18.448Z,52.40
2019-03-29T12:28:44.669Z,52.30
2019-03-29T12:31:12.163Z,52.90
2019-03-29T12:33:38.391Z,52.70
2019-03-29T12:36:04.710Z,52.20
2019-03-29T12:38:31.040Z,51.70
2019-03-29T12:40:57.277Z,50.60
2019-03-29T12:43:23.496Z,51.10
2019-03-29T12:45:49.725Z,50.20
2019-03-29T12:48:15.975Z,51.40
2019-03-29T12:50:42.294Z,51.80
2019-03-29T12:53:08.530Z,51.20
2019-03-29T12:55:34.774Z,50.40
2019-03-29T12:58:00.989Z,50.30
2019-03-29T13:00:27.219Z,49.60
2019-03-29T13:02:53.451Z,49.50
2019-03-29T13:05:19.715Z,50.10
2019-03-29T13:07:45.960Z,49.10
2019-03-29T13:10:13.270Z,49.60
2019-03-29T13:12:39.501Z,50.40
2019-03-29T13:15:06.616Z,50.40
2019-03-29T13:17:32.844Z,51.00
2019-03-29T13:19:59.114Z,50.00
2019-03-29T13:22:25.517Z,49.80
2019-03-29T13:24:51.847Z,50.50
2019-03-29T13:27:18.072Z,50.30
2019-03-29T13:29:44.303Z,49.10
2019-03-29T13:32:10.523Z,50.10
2019-03-29T13:34:36.734Z,49.40
2019-03-29T13:37:02.982Z,49.70
2019-03-29T13:39:29.241Z,49.50
2019-03-29T13:41:55.455Z,49.70
2019-03-29T13:44:24.501Z,49.60
2019-03-29T13:46:49.794Z,49.90
2019-03-29T13:49:16.126Z,49.60
2019-03-29T13:51:42.435Z,50.70
2019-03-29T13:54:08.680Z,50.30
2019-03-29T13:56:35.056Z,49.20
2019-03-29T13:59:01.285Z,49.30
2019-03-29T14:01:27.534Z,49.70
2019-03-29T14:03:53.751Z,49.90
2019-03-29T14:06:19.978Z,51.20
2019-03-29T14:08:46.228Z,51.50
2019-03-29T14:11:13.271Z,49.70
2019-03-29T14:13:39.533Z,48.40
2019-03-29T14:16:05.764Z,48.30
2019-03-29T14:18:31.987Z,48.70
2019-03-29T14:20:58.216Z,48.50
2019-03-29T14:23:24.426Z,49.30
2019-03-29T14:25:50.691Z,48.70
2019-03-29T14:28:16.894Z,50.00
2019-03-29T14:30:43.167Z,50.40
2019-03-29T14:33:09.419Z,50.80
2019-03-29T14:35:35.640Z,50.70
2019-03-29T14:38:02.070Z,49.30
2019-03-29T14:40:28.644Z,48.70
2019-03-29T14:42:54.868Z,46.80
2019-03-29T14:45:21.085Z,48.00
2019-03-29T14:47:47.333Z,48.40
2019-03-29T14:50:13.768Z,50.10
2019-03-29T14:52:40.010Z,50.20
2019-03-29T14:55:06.546Z,50.40
2019-03-29T14:57:32.772Z,50.90
2019-03-29T14:59:58.987Z,51.30
2019-03-29T15:02:25.219Z,51.60
2019-03-29T15:04:51.455Z,51.50
2019-03-29T15:07:18.277Z,51.40
2019-03-29T15:09:45.209Z,51.60
2019-03-29T15:12:11.450Z,51.10
2019-03-29T15:14:37.668Z,50.60
2019-03-29T15:17:03.884Z,50.30
2019-03-29T15:19:30.141Z,51.20
2019-03-29T15:21:56.411Z,51.20
2019-03-29T15:24:22.645Z,51.70
2019-03-29T15:26:48.894Z,51.60
2019-03-29T15:29:15.116Z,50.90
2019-03-29T15:31:41.345Z,51.10
2019-03-29T15:34:07.558Z,51.00
2019-03-29T15:36:33.793Z,50.70
2019-03-29T15:39:00.039Z,51.50
2019-03-29T15:41:26.315Z,51.20
2019-03-29T15:43:52.534Z,51.50
2019-03-29T15:46:18.770Z,51.40
2019-03-29T15:48:44.986Z,51.10
2019-03-29T15:51:11.507Z,50.80
2019-03-29T15:53:37.841Z,50.50
2019-03-29T15:56:04.213Z,50.90
2019-03-29T15:58:30.444Z,51.10
2019-03-29T16:00:56.687Z,51.00
2019-03-29T16:03:22.887Z,50.50
2019-03-29T16:05:49.139Z,50.90
2019-03-29T16:08:15.545Z,51.20
2019-03-29T16:10:41.778Z,50.50
2019-03-29T16:13:08.027Z,49.60
2019-03-29T16:15:38.194Z,49.50
2019-03-29T16:18:02.488Z,50.00
2019-03-29T16:20:28.860Z,50.30
2019-03-29T16:22:55.080Z,50.30
2019-03-29T16:25:21.311Z,50.50
2019-03-29T16:27:48.052Z,50.80
2019-03-29T16:30:14.611Z,51.10
2019-03-29T16:32:40.842Z,51.10
2019-03-29T16:35:07.218Z,51.30
2019-03-29T16:37:35.406Z,51.20
2019-03-29T16:40:04.911Z,51.20
2019-03-29T16:42:31.171Z,51.20
2019-03-29T16:44:57.393Z,51.30
2019-03-29T16:47:23.642Z,51.80
2019-03-29T16:49:50.037Z,51.50
2019-03-29T16:52:16.273Z,51.70
2019-03-29T16:54:42.520Z,51.80
2019-03-29T16:57:08.988Z,51.50
2019-03-29T16:59:35.349Z,51.90
2019-03-29T17:02:01.586Z,51.90
2019-03-29T17:04:28.085Z,52.30
2019-03-29T17:06:54.408Z,52.00
2019-03-29T17:09:20.635Z,52.20
2019-03-29T17:11:46.887Z,52.40
2019-03-29T17:14:13.149Z,52.40
2019-03-29T17:16:39.364Z,52.80
2019-03-29T17:19:05.581Z,53.00
2019-03-29T17:21:32.846Z,53.00
2019-03-29T17:23:59.766Z,53.00
2019-03-29T17:26:25.991Z,53.30
2019-03-29T17:28:52.229Z,53.40
2019-03-29T17:31:18.746Z,53.70
2019-03-29T17:33:44.988Z,53.90
2019-03-29T17:36:11.446Z,54.10
2019-03-29T17:38:37.693Z,54.40
2019-03-29T17:41:04.022Z,54.40
2019-03-29T17:43:30.290Z,54.40
2019-03-29T17:45:56.529Z,54.70
2019-03-29T17:48:22.747Z,54.80
2019-03-29T17:50:49.049Z,55.40
2019-03-29T17:53:15.310Z,55.20
2019-03-29T17:55:41.559Z,55.20
2019-03-29T17:58:07.827Z,55.40
2019-03-29T18:00:34.063Z,55.70
2019-03-29T18:03:00.303Z,55.60
2019-03-29T18:05:26.536Z,55.70
2019-03-29T18:07:52.766Z,55.90
2019-03-29T18:10:18.981Z,56.10
2019-03-29T18:12:45.529Z,56.60
2019-03-29T18:15:12.754Z,57.30
2019-03-29T18:17:38.978Z,56.70
2019-03-29T18:20:06.611Z,57.10
2019-03-29T18:22:32.830Z,57.40
2019-03-29T18:24:59.312Z,57.30
2019-03-29T18:27:25.534Z,57.40
2019-03-29T18:29:51.826Z,57.60
2019-03-29T18:32:18.181Z,57.80
2019-03-29T18:34:44.387Z,58.20
2019-03-29T18:37:12.024Z,58.00
2019-03-29T18:39:38.354Z,58.10
2019-03-29T18:42:04.570Z,58.60
2019-03-29T18:44:31.035Z,58.80
2019-03-29T18:46:57.394Z,58.80
2019-03-29T18:49:23.623Z,58.70
2019-03-29T18:51:49.905Z,59.00
2019-03-29T18:54:16.127Z,58.80
2019-03-29T18:56:42.346Z,58.90
2019-03-29T18:59:08.612Z,58.90
2019-03-29T19:01:34.952Z,59.10
2019-03-29T19:04:01.247Z,59.80
2019-03-29T19:06:27.469Z,59.60
2019-03-29T19:08:53.689Z,59.80
2019-03-29T19:11:20.048Z,59.60
2019-03-29T19:13:46.264Z,59.70
2019-03-29T19:16:12.479Z,60.00
2019-03-29T19:18:38.753Z,60.40
2019-03-29T19:21:05.003Z,60.50
2019-03-29T19:23:31.246Z,60.60
2019-03-29T19:25:57.480Z,60.50
2019-03-29T19:28:23.716Z,60.70
2019-03-29T19:30:49.948Z,60.90
2019-03-29T19:33:16.176Z,61.10
2019-03-29T19:35:42.431Z,61.30
2019-03-29T19:38:08.712Z,61.70
2019-03-29T19:40:34.924Z,61.90
2019-03-29T19:43:01.169Z,62.20
2019-03-29T19:45:27.405Z,62.50
2019-03-29T19:47:53.624Z,62.80
2019-03-29T19:50:20.315Z,63.10
2019-03-29T19:52:47.194Z,63.40
2019-03-29T19:55:13.925Z,63.90
2019-03-29T19:57:40.617Z,64.00
2019-03-29T20:00:11.013Z,63.90
2019-03-29T20:02:37.277Z,63.90
2019-03-29T20:05:06.705Z,64.20
2019-03-29T20:07:33.527Z,64.80
2019-03-29T20:09:59.979Z,65.00
2019-03-29T20:12:26.435Z,65.50
2019-03-29T20:14:52.899Z,65.90
2019-03-29T20:17:27.340Z,66.10
2019-03-29T20:19:48.203Z,66.40
2019-03-29T20:22:16.181Z,67.70
2019-03-29T20:24:43.295Z,67.90
2019-03-29T20:27:09.862Z,68.00
2019-03-29T20:29:36.145Z,68.30
2019-03-29T20:32:02.491Z,68.70
2019-03-29T20:34:29.328Z,69.20
2019-03-29T20:36:55.572Z,69.50
2019-03-29T20:39:21.881Z,69.70
2019-03-29T20:41:48.161Z,70.00
2019-03-29T20:44:14.394Z,70.10
2019-03-29T20:46:40.698Z,70.30
2019-03-29T20:49:06.924Z,70.60
2019-03-29T20:51:33.274Z,70.90
2019-03-29T20:53:59.651Z,70.80
2019-03-29T20:56:28.755Z,71.00
2019-03-29T20:58:54.052Z,71.40
2019-03-29T21:01:20.450Z,71.40
2019-03-29T21:03:47.144Z,71.50
2019-03-29T21:06:13.518Z,71.60
2019-03-29T21:08:39.777Z,71.80
2019-03-29T21:11:06.014Z,72.10
2019-03-29T21:13:32.262Z,72.20
2019-03-29T21:15:58.465Z,72.40
2019-03-29T21:18:24.706Z,72.60
2019-03-29T21:20:50.981Z,72.90
2019-03-29T21:23:17.209Z,73.20
2019-03-29T21:25:43.441Z,73.40
2019-03-29T21:28:09.678Z,73.60
2019-03-29T21:30:35.919Z,73.70
2019-03-29T21:33:02.144Z,73.90
2019-03-29T21:35:28.510Z,73.90
2019-03-29T21:37:54.785Z,74.20
2019-03-29T21:40:21.014Z,74.40
2019-03-29T21:42:47.396Z,74.80
2019-03-29T21:45:27.701Z,74.80
2019-03-29T21:47:42.178Z,74.80
2019-03-29T21:50:08.818Z,74.70
2019-03-29T21:52:35.270Z,74.70
2019-03-29T21:55:01.651Z,75.10
2019-03-29T21:57:27.878Z,75.30
2019-03-29T21:59:54.123Z,75.70
2019-03-29T22:02:21.658Z,76.00
2019-03-29T22:04:48.365Z,76.10
2019-03-29T22:07:14.583Z,76.10
2019-03-29T22:09:40.821Z,76.00
2019-03-29T22:12:07.074Z,76.00
2019-03-29T22:14:33.624Z,76.20
2019-03-29T22:16:59.844Z,76.30
2019-03-29T22:19:26.058Z,76.40
2019-03-29T22:21:52.455Z,76.50
2019-03-29T22:24:18.712Z,76.70
2019-03-29T22:26:44.918Z,76.80
2019-03-29T22:29:11.181Z,77.10
2019-03-29T22:31:37.420Z,77.30
2019-03-29T22:34:03.644Z,77.60
2019-03-29T22:36:29.882Z,77.80
2019-03-29T22:38:56.099Z,77.80
2019-03-29T22:41:22.327Z,78.00
2019-03-29T22:43:48.553Z,78.10
2019-03-29T22:46:14.850Z,78.20
2019-03-29T22:48:52.255Z,78.30
2019-03-29T22:51:10.496Z,78.30
2019-03-29T22:53:36.740Z,78.60
2019-03-29T22:56:03.079Z,78.70
2019-03-29T22:58:29.313Z,78.70
2019-03-29T23:00:56.141Z,78.70
2019-03-29T23:03:22.515Z,78.90
2019-03-29T23:05:48.735Z,79.00
2019-03-29T23:08:14.982Z,78.90
2019-03-29T23:10:41.212Z,78.90
2019-03-29T23:13:07.425Z,79.20
2019-03-29T23:15:33.753Z,79.30
2019-03-29T23:17:59.980Z,79.30
2019-03-29T23:20:26.506Z,79.30
2019-03-29T23:22:52.724Z,79.30
2019-03-29T23:25:18.942Z,79.30
2019-03-29T23:27:45.376Z,79.20
2019-03-29T23:30:12.288Z,79.30
2019-03-29T23:32:38.619Z,79.60
2019-03-29T23:35:06.843Z,79.80
2019-03-29T23:37:33.085Z,79.70
2019-03-29T23:39:59.289Z,79.70
2019-03-29T23:42:25.515Z,79.70
2019-03-29T23:44:51.737Z,79.70
2019-03-29T23:47:17.972Z,79.90
2019-03-29T23:49:44.182Z,80.00
2019-03-29T23:52:10.428Z,80.10
2019-03-29T23:54:36.693Z,80.10
2019-03-29T23:57:02.920Z,80.20
2019-03-29T23:59:29.248Z,80.30
